Time;durP1;ratioP1;P1;durP2;ratioP2;P2;SDS_P1;SDS_P2;PMS_P1;PMS_P2;Temp;Humidity;BMP_temperature;BMP_pressure;BME280_temperature;BME280_humidity;BME280_pressure;Samples;Min_cycle;Max_cycle;Signal;HPM_P1;HPM_P2
2022/09/14 00:02:25;;;;;;;8.75;5.95;;;;;;;-142.57;100.00;68379.81;5045172;28;20030;-76
2022/09/14 00:04:50;;;;;;;9.30;6.00;;;;;;;-142.57;100.00;68379.81;5041094;28;20029;-77
2022/09/14 00:07:16;;;;;;;12.30;6.13;;;;;;;-142.57;100.00;68379.81;5032750;28;20025;-75
2022/09/14 00:09:42;;;;;;;8.63;5.43;;;;;;;-142.57;100.00;68379.81;5040149;28;20060;-75
2022/09/14 00:12:08;;;;;;;8.00;6.03;;;;;;;-142.57;100.00;68379.81;5050425;28;20029;-76
2022/09/14 00:14:34;;;;;;;8.18;5.95;;;;;;;-142.57;100.00;68379.81;5051206;28;20203;-77
2022/09/14 00:17:00;;;;;;;6.93;5.13;;;;;;;-142.57;100.00;68379.81;5051013;28;20372;-77
2022/09/14 00:19:25;;;;;;;10.43;6.32;;;;;;;-142.57;100.00;68379.81;5050566;28;20029;-77
2022/09/14 00:21:54;;;;;;;10.35;6.13;;;;;;;-142.57;100.00;68379.81;5049065;28;20032;-77
2022/09/14 00:24:21;;;;;;;12.98;6.82;;;;;;;-142.57;100.00;68379.81;5020677;28;20114;-77
2022/09/14 00:26:47;;;;;;;8.23;5.93;;;;;;;-142.57;100.00;68379.81;5038151;28;20032;-78
2022/09/14 00:29:12;;;;;;;15.77;5.80;;;;;;;-142.57;100.00;68379.81;5044019;28;20025;-76
2022/09/14 00:31:38;;;;;;;8.43;5.88;;;;;;;-142.57;100.00;68379.81;5047747;28;20037;-76
2022/09/14 00:34:05;;;;;;;11.52;5.93;;;;;;;-142.57;100.00;68379.81;5048179;28;20025;-77
2022/09/14 00:36:32;;;;;;;9.95;6.78;;;;;;;-142.57;100.00;68379.81;5048739;28;20029;-77
2022/09/14 00:38:59;;;;;;;10.90;5.88;;;;;;;-142.57;100.00;68379.81;5047846;28;20040;-77
2022/09/14 00:41:28;;;;;;;9.60;6.05;;;;;;;-142.57;100.00;68379.81;5056608;28;20025;-75
2022/09/14 00:44:02;;;;;;;10.25;7.05;;;;;;;-142.57;100.00;68379.81;5049117;28;20032;-75
2022/09/14 00:46:30;;;;;;;12.07;6.40;;;;;;;-142.57;100.00;68379.81;5050788;28;20029;-75
2022/09/14 00:48:58;;;;;;;9.52;5.50;;;;;;;-142.57;100.00;68379.81;5050715;28;20032;-75
2022/09/14 00:51:24;;;;;;;9.63;5.63;;;;;;;-142.57;100.00;68379.81;5049206;28;20028;-76
2022/09/14 00:53:50;;;;;;;13.45;6.38;;;;;;;-142.57;100.00;68379.81;5048205;28;20115;-75
2022/09/14 00:56:16;;;;;;;8.27;6.60;;;;;;;-142.57;100.00;68379.81;5049105;28;20052;-76
2022/09/14 00:58:44;;;;;;;11.43;6.03;;;;;;;-142.57;100.00;68379.81;5046385;28;20364;-76
2022/09/14 01:01:09;;;;;;;11.27;5.45;;;;;;;-142.57;100.00;68379.81;5049733;28;20039;-76
2022/09/14 01:03:35;;;;;;;12.30;7.47;;;;;;;-142.57;100.00;68379.81;5029974;28;20033;-77
2022/09/14 01:06:17;;;;;;;16.42;7.03;;;;;;;-142.57;100.00;68379.81;5082035;28;20075;-77
2022/09/14 01:09:01;;;;;;;9.98;7.07;;;;;;;-142.57;100.00;68379.81;5050321;28;20460;-78
2022/09/14 01:11:41;;;;;;;10.77;5.60;;;;;;;-142.57;100.00;68379.81;5050694;28;20650;-78
2022/09/14 01:14:10;;;;;;;10.57;6.40;;;;;;;-142.57;100.00;68379.81;5050586;28;20037;-77
2022/09/14 01:16:45;;;;;;;8.85;5.30;;;;;;;-142.57;100.00;68379.81;5050462;28;20392;-77
2022/09/14 01:19:49;;;;;;;8.82;5.85;;;;;;;-142.57;100.00;68379.81;5044040;28;20036;-77
2022/09/14 01:22:23;;;;;;;11.55;5.72;;;;;;;-142.57;100.00;68379.81;5039293;28;20048;-77
2022/09/14 01:24:53;;;;;;;12.18;6.70;;;;;;;-142.57;100.00;68379.81;5032622;28;21554;-77
2022/09/14 01:27:34;;;;;;;9.15;6.60;;;;;;;-142.57;100.00;68379.81;5047865;28;20108;-77
2022/09/14 01:30:04;;;;;;;11.55;7.20;;;;;;;-142.57;100.00;68379.81;5051767;28;20040;-77
2022/09/14 01:32:50;;;;;;;15.77;6.63;;;;;;;-142.57;100.00;68379.81;5047837;28;20025;-77
2022/09/14 01:35:21;;;;;;;13.75;7.25;;;;;;;-142.57;100.00;68379.81;5052907;28;20514;-76
2022/09/14 01:37:50;;;;;;;18.13;8.50;;;;;;;-142.57;100.00;68379.81;5067525;28;20024;-76
2022/09/14 01:40:16;;;;;;;8.85;6.53;;;;;;;-142.57;100.00;68379.81;5065176;28;20036;-77
2022/09/14 01:42:44;;;;;;;11.77;7.40;;;;;;;-142.57;100.00;68379.81;5062185;28;20036;-77
2022/09/14 01:45:12;;;;;;;20.15;7.80;;;;;;;-142.57;100.00;68379.81;5032743;28;20678;-77
2022/09/14 01:48:05;;;;;;;9.57;7.45;;;;;;;-142.57;100.00;68379.81;5076364;28;20029;-77
2022/09/14 01:50:42;;;;;;;11.50;7.20;;;;;;;-142.57;100.00;68379.81;5059013;28;20070;-77
2022/09/14 01:53:29;;;;;;;10.13;7.43;;;;;;;-142.57;100.00;68379.81;5058434;28;20028;-77
2022/09/14 01:56:00;;;;;;;9.48;6.43;;;;;;;-142.57;100.00;68379.81;5051629;28;20036;-79
2022/09/14 01:59:00;;;;;;;13.65;7.47;;;;;;;-142.57;100.00;68379.81;5070651;28;20033;-80
2022/09/14 02:01:49;;;;;;;15.60;7.10;;;;;;;-142.57;100.00;68379.81;5032967;28;20092;-79
2022/09/14 02:04:21;;;;;;;18.80;8.45;;;;;;;-142.57;100.00;68379.81;5048802;28;20033;-78
2022/09/14 02:06:47;;;;;;;12.05;6.55;;;;;;;-142.57;100.00;68379.81;5059600;28;20029;-79
2022/09/14 02:09:20;;;;;;;11.65;6.75;;;;;;;-142.57;100.00;68379.81;5037316;28;20029;-79
2022/09/14 02:11:45;;;;;;;15.60;7.65;;;;;;;-142.57;100.00;68379.81;5068009;28;20793;-81
2022/09/14 02:14:11;;;;;;;15.10;7.97;;;;;;;-142.57;100.00;68379.81;5051708;28;20029;-81
2022/09/14 02:16:37;;;;;;;12.70;7.22;;;;;;;-142.57;100.00;68379.81;5060117;28;20083;-82
2022/09/14 02:19:02;;;;;;;14.57;8.15;;;;;;;-142.57;100.00;68379.81;5046424;28;20048;-82
2022/09/14 02:21:30;;;;;;;10.23;7.78;;;;;;;-142.57;100.00;68379.81;5052507;28;20578;-81
2022/09/14 02:23:57;;;;;;;14.05;9.15;;;;;;;-142.57;100.00;68379.81;5049433;28;20025;-82
2022/09/14 02:26:23;;;;;;;14.00;8.43;;;;;;;-142.57;100.00;68379.81;5053317;28;20032;-83
2022/09/14 02:28:49;;;;;;;11.93;7.68;;;;;;;-142.57;100.00;68379.81;5051582;28;20108;-83
2022/09/14 02:31:32;;;;;;;12.43;8.52;;;;;;;-142.57;100.00;68379.81;5050594;28;20112;-83
2022/09/14 02:34:09;;;;;;;10.52;7.75;;;;;;;-142.57;100.00;68379.81;5061997;28;20214;-83
2022/09/14 02:36:37;;;;;;;13.82;8.25;;;;;;;-142.57;100.00;68379.81;5052178;28;20025;-82
2022/09/14 02:39:17;;;;;;;13.82;9.32;;;;;;;-142.57;100.00;68379.81;5052429;28;20029;-82
2022/09/14 02:42:19;;;;;;;15.77;9.13;;;;;;;-142.57;100.00;68379.81;5050473;28;20483;-82
2022/09/14 02:44:59;;;;;;;14.05;9.95;;;;;;;-142.57;100.00;68379.81;5050926;28;20029;-82
2022/09/14 02:47:46;;;;;;;15.80;10.38;;;;;;;-142.57;100.00;68379.81;5050950;28;20071;-82
2022/09/14 02:50:21;;;;;;;20.55;11.25;;;;;;;-142.57;100.00;68379.81;5049036;28;20044;-80
2022/09/14 02:52:58;;;;;;;23.02;10.40;;;;;;;-142.57;100.00;68379.81;5051542;28;20055;-80
2022/09/14 02:55:25;;;;;;;14.35;10.95;;;;;;;-142.57;100.00;68379.81;5051457;28;20032;-81
2022/09/14 02:58:01;;;;;;;23.65;10.43;;;;;;;-142.57;100.00;68379.81;5051610;28;20029;-81
2022/09/14 03:00:28;;;;;;;16.40;11.65;;;;;;;-142.57;100.00;68379.81;5052554;28;20045;-80
2022/09/14 03:02:53;;;;;;;25.02;11.73;;;;;;;-142.57;100.00;68379.81;5051266;28;20101;-80
2022/09/14 03:05:19;;;;;;;13.80;10.15;;;;;;;-142.57;100.00;68379.81;5052969;28;20639;-82
2022/09/14 03:07:44;;;;;;;18.45;11.80;;;;;;;-142.57;100.00;68379.81;5052256;28;20086;-80
2022/09/14 03:10:10;;;;;;;15.95;10.45;;;;;;;-142.57;100.00;68379.81;5050650;28;20094;-81
2022/09/14 03:12:37;;;;;;;20.92;12.27;;;;;;;-142.57;100.00;68379.81;5050084;28;20020;-78
2022/09/14 03:15:02;;;;;;;13.80;11.25;;;;;;;-142.57;100.00;68379.81;5084582;28;20191;-81
2022/09/14 03:17:28;;;;;;;17.35;11.43;;;;;;;-142.57;100.00;68379.81;5033586;28;20543;-81
2022/09/14 03:19:53;;;;;;;24.55;13.70;;;;;;;-142.57;100.00;68379.81;5051582;28;20364;-79
2022/09/14 03:22:18;;;;;;;23.33;13.75;;;;;;;-142.57;100.00;68379.81;5047584;28;20021;-80
2022/09/14 03:24:44;;;;;;;16.85;13.10;;;;;;;-142.57;100.00;68379.81;5050530;28;20029;-80
2022/09/14 03:27:09;;;;;;;17.42;13.32;;;;;;;-142.57;100.00;68379.81;5055777;28;20468;-80
2022/09/14 03:29:35;;;;;;;14.13;12.38;;;;;;;-142.57;100.00;68379.81;5051936;28;20029;-81
2022/09/14 03:32:00;;;;;;;18.48;14.75;;;;;;;-142.57;100.00;68379.81;5051875;28;20104;-81
2022/09/14 03:34:25;;;;;;;26.08;15.68;;;;;;;-142.57;100.00;68379.81;5065704;28;20116;-80
2022/09/14 03:36:51;;;;;;;18.63;14.35;;;;;;;-142.57;100.00;68379.81;5065302;28;20116;-80
2022/09/14 03:39:16;;;;;;;20.38;15.77;;;;;;;-142.57;100.00;68379.81;5052159;28;20060;-80
2022/09/14 03:41:41;;;;;;;18.30;15.38;;;;;;;-142.57;100.00;68379.81;5065652;28;20032;-80
2022/09/14 03:44:08;;;;;;;20.73;15.93;;;;;;;-142.57;100.00;68379.81;5043553;28;20039;-79
2022/09/14 03:46:34;;;;;;;19.70;14.82;;;;;;;-142.57;100.00;68379.81;5017388;28;20080;-80
2022/09/14 03:48:59;;;;;;;18.42;16.00;;;;;;;-142.57;100.00;68379.81;5039399;28;20556;-78
2022/09/14 03:51:25;;;;;;;20.38;16.75;;;;;;;-142.57;100.00;68379.81;5038682;28;20040;-80
2022/09/14 03:53:50;;;;;;;22.23;15.35;;;;;;;-142.57;100.00;68379.81;5062319;28;20118;-79
2022/09/14 03:56:18;;;;;;;26.10;15.18;;;;;;;-142.57;100.00;68379.81;5057613;28;20037;-81
2022/09/14 03:58:44;;;;;;;20.35;17.30;;;;;;;-142.57;100.00;68379.81;5080777;28;20025;-78
2022/09/14 04:01:13;;;;;;;28.67;18.02;;;;;;;-142.57;100.00;68379.81;5040197;28;20439;-78
2022/09/14 04:03:38;;;;;;;25.15;18.38;;;;;;;-142.57;100.00;68379.81;5045536;28;20075;-79
2022/09/14 04:06:05;;;;;;;18.42;16.08;;;;;;;-142.57;100.00;68379.81;5057244;28;20429;-79
2022/09/14 04:08:32;;;;;;;18.77;16.63;;;;;;;-142.57;100.00;68379.81;5068715;28;20051;-78
2022/09/14 04:10:57;;;;;;;21.52;17.25;;;;;;;-142.57;100.00;68379.81;5041170;28;20050;-79
2022/09/14 04:13:23;;;;;;;18.70;15.73;;;;;;;-142.57;100.00;68379.81;5036159;28;20033;-79
2022/09/14 04:15:58;;;;;;;21.52;16.75;;;;;;;-142.57;100.00;68379.81;5050250;28;20099;-80
2022/09/14 04:18:24;;;;;;;20.83;15.40;;;;;;;-142.57;100.00;68379.81;5037798;28;20024;-82
2022/09/14 04:20:57;;;;;;;18.35;16.45;;;;;;;-142.57;100.00;68379.81;5049590;28;20028;-81
2022/09/14 04:23:24;;;;;;;25.45;15.82;;;;;;;-142.57;100.00;68379.81;5057359;28;20113;-80
2022/09/14 04:25:50;;;;;;;18.15;16.10;;;;;;;-142.57;100.00;68379.81;5057219;28;20029;-79
2022/09/14 04:28:15;;;;;;;20.15;15.82;;;;;;;-142.57;100.00;68379.81;5062822;28;20029;-80
2022/09/14 04:30:41;;;;;;;20.77;16.15;;;;;;;-142.57;100.00;68379.81;5047782;28;20029;-79
2022/09/14 04:33:06;;;;;;;23.17;16.63;;;;;;;-142.57;100.00;68379.81;5051911;28;20032;-80
2022/09/14 04:35:32;;;;;;;19.60;15.73;;;;;;;-142.57;100.00;68379.81;5045277;28;20029;-79
2022/09/14 04:37:57;;;;;;;18.45;14.32;;;;;;;-142.57;100.00;68379.81;5064848;28;20087;-81
2022/09/14 04:40:23;;;;;;;20.73;16.67;;;;;;;-142.57;100.00;68379.81;5062205;28;20443;-83
2022/09/14 04:42:48;;;;;;;25.27;17.55;;;;;;;-142.57;100.00;68379.81;5062958;28;20113;-82
2022/09/14 04:45:14;;;;;;;22.80;16.45;;;;;;;-142.57;100.00;68379.81;5067101;28;20032;-80
2022/09/14 04:47:39;;;;;;;22.80;17.75;;;;;;;-142.57;100.00;68379.81;5059040;28;20056;-78
2022/09/14 04:50:05;;;;;;;20.75;18.40;;;;;;;-142.57;100.00;68379.81;5048063;28;20032;-78
2022/09/14 04:52:30;;;;;;;21.83;17.73;;;;;;;-142.57;100.00;68379.81;5057209;28;20036;-80
2022/09/14 04:54:55;;;;;;;23.02;20.40;;;;;;;-142.57;100.00;68379.81;5047921;28;20116;-79
2022/09/14 04:57:21;;;;;;;31.88;20.92;;;;;;;-142.57;100.00;68379.81;5047606;28;20455;-80
2022/09/14 04:59:46;;;;;;;23.73;20.90;;;;;;;-142.57;100.00;68379.81;5029958;28;20040;-79
2022/09/14 05:02:11;;;;;;;24.73;22.20;;;;;;;-142.57;100.00;68379.81;5051992;28;20104;-79
2022/09/14 05:04:37;;;;;;;27.20;20.08;;;;;;;-142.57;100.00;68379.81;5064610;28;20036;-79
2022/09/14 05:07:02;;;;;;;23.73;20.92;;;;;;;-142.57;100.00;68379.81;5032745;28;20542;-79
2022/09/14 05:09:28;;;;;;;34.85;20.15;;;;;;;-142.57;100.00;68379.81;5055860;28;20024;-80
2022/09/14 05:11:53;;;;;;;27.48;21.85;;;;;;;-142.57;100.00;68379.81;5054837;28;20032;-78
2022/09/14 05:14:18;;;;;;;27.85;22.65;;;;;;;-142.57;100.00;68379.81;5033338;28;20048;-79
2022/09/14 05:16:44;;;;;;;26.80;22.30;;;;;;;-142.57;100.00;68379.81;5031771;28;20447;-80
2022/09/14 05:19:13;;;;;;;26.25;21.88;;;;;;;-142.57;100.00;68379.81;5054964;28;20029;-80
2022/09/14 05:21:38;;;;;;;27.33;22.48;;;;;;;-142.57;100.00;68379.81;5039226;28;20550;-81
2022/09/14 05:24:13;;;;;;;26.27;23.50;;;;;;;-142.57;100.00;68379.81;5051939;28;20025;-80
2022/09/14 05:26:39;;;;;;;26.98;24.17;;;;;;;-142.57;100.00;68379.81;5050180;28;20391;-80
2022/09/14 05:29:05;;;;;;;22.20;20.08;;;;;;;-142.57;100.00;68379.81;5056866;28;20029;-82
2022/09/14 05:31:31;;;;;;;23.63;21.35;;;;;;;-142.57;100.00;68379.81;5033148;28;20087;-79
2022/09/14 05:33:56;;;;;;;22.55;19.92;;;;;;;-142.57;100.00;68379.81;5085252;28;20414;-78
2022/09/14 05:36:22;;;;;;;26.95;22.13;;;;;;;-142.57;100.00;68379.81;5051123;28;20067;-81
2022/09/14 05:38:47;;;;;;;23.52;21.05;;;;;;;-142.57;100.00;68379.81;5059713;28;20028;-79
2022/09/14 05:41:14;;;;;;;20.35;18.45;;;;;;;-142.57;100.00;68379.81;5042350;28;20020;-80
2022/09/14 05:43:40;;;;;;;26.00;21.73;;;;;;;-142.57;100.00;68379.81;5053132;28;20079;-81
2022/09/14 05:46:09;;;;;;;23.17;20.85;;;;;;;-142.57;100.00;68379.81;5061523;28;20144;-80
2022/09/14 05:48:36;;;;;;;23.63;21.27;;;;;;;-142.57;100.00;68379.81;5058654;28;20032;-78
2022/09/14 05:51:15;;;;;;;24.88;22.27;;;;;;;-142.57;100.00;68379.81;5056531;28;20040;-80
2022/09/14 05:53:41;;;;;;;20.88;19.02;;;;;;;-142.57;100.00;68379.81;5054846;28;20434;-80
2022/09/14 05:56:07;;;;;;;23.38;21.05;;;;;;;-142.57;100.00;68379.81;5083184;28;20060;-79
2022/09/14 05:58:36;;;;;;;23.10;20.83;;;;;;;-142.57;100.00;68379.81;5055257;28;20651;-81
2022/09/14 06:01:18;;;;;;;19.35;17.60;;;;;;;-142.57;100.00;68379.81;5064198;28;20044;-81
2022/09/14 06:03:44;;;;;;;22.27;19.83;;;;;;;-142.57;100.00;68379.81;5045950;28;20044;-80
2022/09/14 06:06:11;;;;;;;20.08;17.98;;;;;;;-142.57;100.00;68379.81;5048869;28;20025;-80
2022/09/14 06:08:37;;;;;;;20.52;18.45;;;;;;;-142.57;100.00;68379.81;5064775;28;20510;-81
2022/09/14 06:11:07;;;;;;;25.52;19.40;;;;;;;-142.57;100.00;68379.81;5058212;28;20029;-81
2022/09/14 06:13:33;;;;;;;18.83;16.83;;;;;;;-142.57;100.00;68379.81;5050113;28;20044;-82
2022/09/14 06:16:03;;;;;;;20.65;16.80;;;;;;;-142.57;100.00;68379.81;5043123;28;20037;-80
2022/09/14 06:18:30;;;;;;;18.25;16.35;;;;;;;-142.57;100.00;68379.81;5032295;28;20024;-80
2022/09/14 06:20:56;;;;;;;20.77;18.63;;;;;;;-142.57;100.00;68379.81;5042563;28;20676;-80
2022/09/14 06:23:22;;;;;;;21.55;19.38;;;;;;;-142.57;100.00;68379.81;5048578;28;20033;-82
2022/09/14 06:25:47;;;;;;;18.73;16.58;;;;;;;-142.57;100.00;68379.81;5047727;28;20060;-80
2022/09/14 06:28:12;;;;;;;18.77;16.90;;;;;;;-142.57;100.00;68379.81;5040513;28;20894;-79
2022/09/14 06:30:41;;;;;;;17.35;15.65;;;;;;;-142.57;100.00;68379.81;5047727;28;20887;-80
2022/09/14 06:33:07;;;;;;;19.77;17.13;;;;;;;-142.57;100.00;68379.81;5045842;28;20025;-79
2022/09/14 06:35:32;;;;;;;19.55;16.83;;;;;;;-142.57;100.00;68379.81;5049281;28;20025;-80
2022/09/14 06:37:57;;;;;;;25.65;18.50;;;;;;;-142.57;100.00;68379.81;5060624;28;20024;-80
2022/09/14 06:40:23;;;;;;;19.13;16.98;;;;;;;-142.57;100.00;68379.81;5046740;28;20024;-80
2022/09/14 06:42:48;;;;;;;20.10;18.00;;;;;;;-142.57;100.00;68379.81;5057458;28;20078;-74
2022/09/14 06:45:13;;;;;;;19.85;16.27;;;;;;;-142.57;100.00;68379.81;5048632;28;20075;-79
2022/09/14 06:47:39;;;;;;;22.63;18.20;;;;;;;-142.57;100.00;68379.81;5042324;28;20033;-80
2022/09/14 06:50:05;;;;;;;20.75;16.95;;;;;;;-142.57;100.00;68379.81;5046096;28;20032;-80
2022/09/14 06:52:30;;;;;;;19.70;16.98;;;;;;;-142.57;100.00;68379.81;5043850;28;20028;-80
2022/09/14 06:54:55;;;;;;;17.33;15.65;;;;;;;-142.57;100.00;68379.81;5059324;28;20403;-78
2022/09/14 06:57:21;;;;;;;23.75;19.25;;;;;;;-142.57;100.00;68379.81;5048394;28;20112;-79
2022/09/14 06:59:46;;;;;;;19.35;17.17;;;;;;;-142.57;100.00;68379.81;5052240;28;20384;-79
2022/09/14 07:02:12;;;;;;;19.00;17.05;;;;;;;-142.57;100.00;68379.81;5048407;28;20029;-79
2022/09/14 07:04:38;;;;;;;16.25;14.50;;;;;;;-142.57;100.00;68379.81;5065419;28;20040;-78
2022/09/14 07:07:03;;;;;;;18.67;16.35;;;;;;;-142.57;100.00;68379.81;5054745;28;20025;-78
2022/09/14 07:09:30;;;;;;;21.42;16.65;;;;;;;-142.57;100.00;68379.81;5046935;28;20081;-77
2022/09/14 07:11:55;;;;;;;18.45;16.52;;;;;;;-142.57;100.00;68379.81;5082011;28;20080;-80
2022/09/14 07:14:21;;;;;;;17.30;15.23;;;;;;;-142.57;100.00;68379.81;5048172;28;20064;-80
2022/09/14 07:16:46;;;;;;;19.52;17.58;;;;;;;-142.57;100.00;68379.81;5048125;28;20043;-81
2022/09/14 07:19:13;;;;;;;23.90;16.88;;;;;;;-142.57;100.00;68379.81;5029955;28;20487;-81
2022/09/14 07:21:39;;;;;;;17.38;15.57;;;;;;;-142.57;100.00;68379.81;5046651;28;20166;-80
2022/09/14 07:24:04;;;;;;;15.90;14.35;;;;;;;-142.57;100.00;68379.81;5040915;28;20125;-79
2022/09/14 07:26:41;;;;;;;18.85;16.90;;;;;;;-142.57;100.00;68379.81;5079330;28;20036;-79
2022/09/14 07:29:09;;;;;;;19.30;16.05;;;;;;;-142.57;100.00;68379.81;5053689;28;20769;-79
2022/09/14 07:31:41;;;;;;;18.15;16.30;;;;;;;-142.57;100.00;68379.81;5049112;28;20513;-80
2022/09/14 07:34:06;;;;;;;19.65;17.65;;;;;;;-142.57;100.00;68379.81;5060218;28;20110;-79
2022/09/14 07:36:34;;;;;;;20.35;18.20;;;;;;;-142.57;100.00;68379.81;5049345;28;20516;-80
2022/09/14 07:39:01;;;;;;;20.15;18.05;;;;;;;-142.57;100.00;68379.81;5054988;28;20510;-80
2022/09/14 07:41:28;;;;;;;20.25;18.08;;;;;;;-142.57;100.00;68379.81;5046876;28;20438;-80
2022/09/14 07:43:56;;;;;;;18.17;16.35;;;;;;;-142.57;100.00;68379.81;5066713;28;20035;-79
2022/09/14 07:46:22;;;;;;;19.73;17.67;;;;;;;-142.57;100.00;68379.81;5052620;28;20083;-79
2022/09/14 07:48:49;;;;;;;23.50;18.40;;;;;;;-142.57;100.00;68379.81;5053942;28;20032;-80
2022/09/14 07:51:15;;;;;;;20.70;16.58;;;;;;;-142.57;100.00;68379.81;5048716;28;20532;-80
2022/09/14 07:53:41;;;;;;;20.95;16.42;;;;;;;-142.57;100.00;68379.81;5048891;28;20021;-79
2022/09/14 07:56:08;;;;;;;22.48;17.73;;;;;;;-142.57;100.00;68379.81;5030387;28;20132;-78
2022/09/14 07:58:33;;;;;;;23.17;19.45;;;;;;;-142.57;100.00;68379.81;5030613;28;20041;-79
2022/09/14 08:01:00;;;;;;;21.77;19.42;;;;;;;-142.57;100.00;68379.81;5020508;28;20433;-79
2022/09/14 08:03:27;;;;;;;20.15;16.73;;;;;;;-142.57;100.00;68379.81;5082974;28;20367;-80
2022/09/14 08:06:14;;;;;;;21.45;19.23;;;;;;;-142.57;100.00;68379.81;5050670;28;20765;-81
2022/09/14 08:08:42;;;;;;;25.90;19.23;;;;;;;-142.57;100.00;68379.81;5050916;28;20082;-77
2022/09/14 08:11:29;;;;;;;19.98;17.95;;;;;;;-142.57;100.00;68379.81;5050445;28;20356;-80
2022/09/14 08:13:58;;;;;;;24.63;20.00;;;;;;;-142.57;100.00;68379.81;5051776;28;20114;-79
2022/09/14 08:16:26;;;;;;;22.95;17.75;;;;;;;-142.57;100.00;68379.81;5051632;28;20089;-80
2022/09/14 08:18:57;;;;;;;20.55;18.52;;;;;;;-142.57;100.00;68379.81;5049246;28;20113;-81
2022/09/14 08:21:23;;;;;;;21.73;17.88;;;;;;;-142.57;100.00;68379.81;5049914;28;20028;-80
2022/09/14 08:23:49;;;;;;;21.95;17.40;;;;;;;-142.57;100.00;68379.81;5051101;28;20056;-80
2022/09/14 08:26:20;;;;;;;17.90;13.93;;;;;;;-142.57;100.00;68379.81;5049466;28;20090;-80
2022/09/14 08:28:46;;;;;;;19.92;17.65;;;;;;;-142.57;100.00;68379.81;5049683;28;20032;-80
2022/09/14 08:31:15;;;;;;;18.42;16.45;;;;;;;-142.57;100.00;68379.81;5050066;28;20060;-79
2022/09/14 08:33:43;;;;;;;21.63;16.20;;;;;;;-142.57;100.00;68379.81;5050300;28;20516;-79
2022/09/14 08:36:10;;;;;;;19.23;16.08;;;;;;;-142.57;100.00;68379.81;5051068;28;20037;-80
2022/09/14 08:38:35;;;;;;;20.52;17.15;;;;;;;-142.57;100.00;68379.81;5036371;28;20028;-82
2022/09/14 08:41:17;;;;;;;23.75;18.25;;;;;;;-142.57;100.00;68379.81;5051073;28;20112;-80
2022/09/14 08:43:43;;;;;;;26.02;18.63;;;;;;;-142.57;100.00;68379.81;5050145;28;20123;-80
2022/09/14 08:46:19;;;;;;;21.38;17.77;;;;;;;-142.57;100.00;68379.81;5050268;28;20055;-81
2022/09/14 08:48:47;;;;;;;24.63;18.27;;;;;;;-142.57;100.00;68379.81;5055322;28;20071;-81
2022/09/14 08:51:13;;;;;;;19.17;17.27;;;;;;;-142.57;100.00;68379.81;5057744;28;20029;-81
2022/09/14 08:53:40;;;;;;;20.17;17.50;;;;;;;-142.57;100.00;68379.81;5049963;28;20029;-80
2022/09/14 08:56:16;;;;;;;20.48;18.38;;;;;;;-142.57;100.00;68379.81;5049294;28;20368;-78
2022/09/14 08:59:03;;;;;;;18.63;16.65;;;;;;;-142.57;100.00;68379.81;5046127;28;20071;-78
2022/09/14 09:01:56;;;;;;;18.13;15.85;;;;;;;-142.57;100.00;68379.81;5036234;28;20037;-76
2022/09/14 09:04:30;;;;;;;21.63;17.05;;;;;;;-142.57;100.00;68379.81;5010031;28;20116;-79
2022/09/14 09:07:23;;;;;;;21.90;16.95;;;;;;;-142.57;100.00;68379.81;5043287;28;20464;-76
2022/09/14 09:09:51;;;;;;;22.88;16.25;;;;;;;-142.57;100.00;68379.81;5042200;28;20524;-77
2022/09/14 09:12:20;;;;;;;27.85;18.88;;;;;;;-142.57;100.00;68379.81;5038924;28;20032;-77
2022/09/14 09:14:52;;;;;;;21.60;18.23;;;;;;;-142.57;100.00;68379.81;5042450;28;20036;-77
2022/09/14 09:17:28;;;;;;;20.30;17.50;;;;;;;-142.57;100.00;68379.81;5049596;28;20032;-76
2022/09/14 09:19:57;;;;;;;20.33;17.77;;;;;;;-142.57;100.00;68379.81;5052088;28;20182;-75
2022/09/14 09:22:24;;;;;;;19.75;17.65;;;;;;;-142.57;100.00;68379.81;5044028;28;20047;-77
2022/09/14 09:24:54;;;;;;;21.80;19.45;;;;;;;-142.57;100.00;68379.81;5040764;28;20029;-79
2022/09/14 09:27:20;;;;;;;21.25;18.13;;;;;;;-142.57;100.00;68379.81;5043566;28;20166;-80
2022/09/14 09:29:45;;;;;;;23.80;19.58;;;;;;;-142.57;100.00;68379.81;5045233;28;20922;-78
2022/09/14 09:32:28;;;;;;;20.70;18.50;;;;;;;-142.57;100.00;68379.81;5049045;28;20435;-77
2022/09/14 09:34:54;;;;;;;26.60;19.52;;;;;;;-142.57;100.00;68379.81;5064355;28;20506;-78
2022/09/14 09:37:21;;;;;;;24.23;21.10;;;;;;;-142.57;100.00;68379.81;5066879;28;20032;-76
2022/09/14 09:39:48;;;;;;;21.60;19.15;;;;;;;-142.57;100.00;68379.81;5072467;28;20037;-77
2022/09/14 09:42:15;;;;;;;23.92;20.70;;;;;;;-142.57;100.00;68379.81;5043194;28;20028;-76
2022/09/14 09:44:55;;;;;;;24.00;21.30;;;;;;;-142.57;100.00;68379.81;5042402;28;20033;-77
2022/09/14 09:47:27;;;;;;;25.30;22.33;;;;;;;-142.57;100.00;68379.81;5032877;28;20021;-77
2022/09/14 09:49:57;;;;;;;25.35;21.90;;;;;;;-142.57;100.00;68379.81;5050042;28;20025;-79
2022/09/14 09:52:23;;;;;;;29.92;21.88;;;;;;;-142.57;100.00;68379.81;5035008;28;20087;-77
2022/09/14 09:54:50;;;;;;;23.55;21.17;;;;;;;-142.57;100.00;68379.81;5046522;28;20598;-78
2022/09/14 09:57:42;;;;;;;23.20;20.80;;;;;;;-142.57;100.00;68379.81;5048700;28;20068;-78
2022/09/14 10:00:21;;;;;;;23.17;20.80;;;;;;;-142.57;100.00;68379.81;5047065;28;20155;-78
2022/09/14 10:02:47;;;;;;;25.95;22.20;;;;;;;-142.57;100.00;68379.81;5051983;28;20033;-78
2022/09/14 10:05:12;;;;;;;24.58;20.58;;;;;;;-142.57;100.00;68379.81;5042835;28;20032;-78
2022/09/14 10:07:49;;;;;;;23.52;21.23;;;;;;;-142.57;100.00;68379.81;5054937;28;20547;-79
2022/09/14 10:10:17;;;;;;;22.75;20.40;;;;;;;-142.57;100.00;68379.81;5057359;28;20032;-81
2022/09/14 10:12:52;;;;;;;26.15;23.02;;;;;;;-142.57;100.00;68379.81;5057947;28;21550;-83
2022/09/14 10:15:26;;;;;;;23.50;21.20;;;;;;;-142.57;100.00;68379.81;5071644;28;20032;-82
2022/09/14 10:18:05;;;;;;;22.70;20.50;;;;;;;-142.57;100.00;68379.81;5009456;28;20072;-81
2022/09/14 10:20:31;;;;;;;25.90;18.92;;;;;;;-142.57;100.00;68379.81;5031239;28;20848;-81
2022/09/14 10:23:14;;;;;;;23.50;20.67;;;;;;;-142.57;100.00;68379.81;5045032;28;20029;-79
2022/09/14 10:25:39;;;;;;;22.77;20.35;;;;;;;-142.57;100.00;68379.81;5048321;28;20864;-80
2022/09/14 10:28:19;;;;;;;22.35;19.98;;;;;;;-142.57;100.00;68379.81;5044808;28;20029;-80
2022/09/14 10:30:50;;;;;;;25.73;19.92;;;;;;;-142.57;100.00;68379.81;5045326;28;20083;-80
2022/09/14 10:33:17;;;;;;;23.63;21.33;;;;;;;-142.57;100.00;68379.81;5019508;28;20808;-80
2022/09/14 10:35:48;;;;;;;23.63;20.95;;;;;;;-142.57;100.00;68379.81;5076619;28;20130;-81
2022/09/14 10:38:31;;;;;;;23.02;20.55;;;;;;;-142.57;100.00;68379.81;5041230;28;20069;-80
2022/09/14 10:41:07;;;;;;;22.13;19.95;;;;;;;-142.57;100.00;68379.81;5046359;28;20039;-79
2022/09/14 10:43:39;;;;;;;20.48;18.48;;;;;;;-142.57;100.00;68379.81;5053884;28;20506;-80
2022/09/14 10:46:06;;;;;;;20.58;18.40;;;;;;;-142.57;100.00;68379.81;5045041;28;20032;-80
2022/09/14 10:48:50;;;;;;;19.77;17.77;;;;;;;-142.57;100.00;68379.81;5051456;28;20059;-81
2022/09/14 10:51:38;;;;;;;20.25;18.15;;;;;;;-142.57;100.00;68379.81;5034993;28;20041;-81
2022/09/14 10:54:30;;;;;;;18.50;16.60;;;;;;;-142.57;100.00;68379.81;5037399;28;20029;-81
2022/09/14 10:57:17;;;;;;;17.13;15.43;;;;;;;-142.57;100.00;68379.81;5016844;28;20041;-81
2022/09/14 10:59:46;;;;;;;17.08;15.38;;;;;;;-142.57;100.00;68379.81;5030762;28;20064;-80
2022/09/14 11:02:46;;;;;;;19.58;16.17;;;;;;;-142.57;100.00;68379.81;5028264;28;20041;-81
2022/09/14 11:05:19;;;;;;;18.90;16.55;;;;;;;-142.57;100.00;68379.81;5020447;28;20029;-81
2022/09/14 11:08:18;;;;;;;18.23;16.45;;;;;;;-142.57;100.00;68379.81;5025246;28;20825;-80
2022/09/14 11:11:05;;;;;;;21.38;17.10;;;;;;;-142.57;100.00;68379.81;5018578;28;20880;-80